Time;durP1;ratioP1;P1;durP2;ratioP2;P2;SDS_P1;SDS_P2;PMS_P1;PMS_P2;Temp;Humidity;BMP_temperature;BMP_pressure;BME280_temperature;BME280_humidity;BME280_pressure;Samples;Min_cycle;Max_cycle;Signal;HPM_P1;HPM_P2
2023/05/19 00:01:06;;;;;;;;;;;11.00;92.10;;;;;;5090745;28;20025;-72
2023/05/19 00:03:32;;;;;;;;;;;11.00;92.40;;;;;;5090786;28;19912;-74
2023/05/19 00:06:00;;;;;;;;;;;11.00;92.80;;;;;;5091172;28;19951;-72
2023/05/19 00:08:28;;;;;;;;;;;10.90;93.20;;;;;;5110139;28;20264;-74
2023/05/19 00:10:53;;;;;;;;;;;10.90;93.90;;;;;;5090870;28;20343;-72
2023/05/19 00:13:20;;;;;;;;;;;10.90;94.20;;;;;;5092273;28;19938;-72
2023/05/19 00:15:45;;;;;;;;;;;11.00;94.70;;;;;;5109853;28;19912;-74
2023/05/19 00:18:12;;;;;;;;;;;10.90;95.00;;;;;;5108900;28;20941;-73
2023/05/19 00:20:38;;;;;;;;;;;10.90;95.60;;;;;;5108247;28;19918;-73
2023/05/19 00:23:04;;;;;;;;;;;10.90;96.10;;;;;;5091840;28;20251;-72
2023/05/19 00:25:29;;;;;;;;;;;10.80;96.30;;;;;;5074925;28;20017;-72
2023/05/19 00:27:55;;;;;;;;;;;10.80;96.60;;;;;;5092162;28;19919;-72
2023/05/19 00:30:21;;;;;;;;;;;10.90;96.90;;;;;;5089908;28;20378;-72
2023/05/19 00:32:47;;;;;;;;;;;10.90;97.00;;;;;;5091119;28;20322;-74
2023/05/19 00:35:13;;;;;;;;;;;10.90;97.20;;;;;;5106801;28;19959;-74
2023/05/19 00:37:38;;;;;;;;;;;10.80;97.70;;;;;;5091649;28;19912;-74
2023/05/19 00:40:05;;;;;;;;;;;10.80;97.90;;;;;;5093119;27;19908;-74
2023/05/19 00:42:31;;;;;;;;;;;10.80;98.00;;;;;;5091064;28;19922;-74
2023/05/19 00:44:57;;;;;;;;;;;10.70;98.30;;;;;;5109938;28;19915;-74
2023/05/19 00:47:22;;;;;;;;;;;10.70;98.70;;;;;;5083840;28;19920;-74
2023/05/19 00:49:48;;;;;;;;;;;10.70;98.80;;;;;;5069249;28;19912;-73
2023/05/19 00:52:14;;;;;;;;;;;10.60;98.70;;;;;;5108066;28;19912;-74
2023/05/19 00:54:39;;;;;;;;;;;10.60;98.90;;;;;;5109050;28;19999;-73
2023/05/19 00:57:05;;;;;;;;;;;10.60;98.90;;;;;;5090947;28;20382;-74
2023/05/19 00:59:30;;;;;;;;;;;10.60;99.30;;;;;;5110278;28;19908;-72
2023/05/19 01:01:56;;;;;;;;;;;10.60;99.80;;;;;;5091841;28;19989;-74
2023/05/19 01:04:24;;;;;;;;;;;10.60;99.90;;;;;;5092676;28;19983;-74
2023/05/19 01:06:54;;;;;;;;;;;10.60;99.90;;;;;;5108236;28;19915;-73
2023/05/19 01:09:22;;;;;;;;;;;10.50;99.90;;;;;;5088272;28;19916;-72
2023/05/19 01:11:51;;;;;;;;;;;10.50;99.90;;;;;;5090266;28;20383;-72
2023/05/19 01:14:17;;;;;;;;;;;10.50;99.90;;;;;;5091338;28;19912;-73
2023/05/19 01:16:52;;;;;;;;;;;10.40;99.90;;;;;;5089387;28;19912;-72
2023/05/19 01:19:39;;;;;;;;;;;10.40;99.90;;;;;;5109488;28;20011;-73
2023/05/19 01:22:11;;;;;;;;;;;10.40;99.90;;;;;;5107850;28;19923;-73
2023/05/19 01:24:44;;;;;;;;;;;10.40;99.90;;;;;;5090167;28;19911;-72
2023/05/19 01:27:12;;;;;;;;;;;10.40;99.90;;;;;;5087975;28;19920;-72
2023/05/19 01:29:38;;;;;;;;;;;10.40;99.90;;;;;;5091354;28;19955;-74
2023/05/19 01:32:05;;;;;;;;;;;10.40;99.90;;;;;;5089496;28;19962;-73
2023/05/19 01:34:32;;;;;;;;;;;10.40;99.90;;;;;;5108925;28;19908;-72
2023/05/19 01:36:59;;;;;;;;;;;10.40;99.90;;;;;;5089715;28;19912;-73
2023/05/19 01:39:25;;;;;;;;;;;10.40;99.90;;;;;;5090469;28;20418;-74
2023/05/19 01:41:51;;;;;;;;;;;10.40;99.90;;;;;;5105774;28;19927;-72
2023/05/19 01:44:17;;;;;;;;;;;10.40;99.90;;;;;;5090014;28;19911;-72
2023/05/19 01:46:43;;;;;;;;;;;10.30;99.90;;;;;;5109946;28;20015;-72
2023/05/19 01:49:09;;;;;;;;;;;10.40;99.90;;;;;;5088155;28;19991;-72
2023/05/19 01:51:35;;;;;;;;;;;10.30;99.90;;;;;;5107699;27;20212;-72
2023/05/19 01:54:00;;;;;;;;;;;10.30;99.90;;;;;;5103921;28;19948;-72
2023/05/19 01:56:55;;;;;;;;;;;10.30;99.90;;;;;;5110048;28;19919;-74
2023/05/19 01:59:42;;;;;;;;;;;10.30;99.90;;;;;;5043617;28;19956;-72
2023/05/19 02:02:27;;;;;;;;;;;10.30;99.90;;;;;;5090149;28;19911;-73
2023/05/19 02:04:56;;;;;;;;;;;10.30;99.90;;;;;;5072429;28;19998;-73
2023/05/19 02:07:27;;;;;;;;;;;10.20;99.90;;;;;;5088391;28;19915;-72
2023/05/19 02:10:03;;;;;;;;;;;10.20;99.90;;;;;;5107282;28;19984;-74
2023/05/19 02:12:34;;;;;;;;;;;10.20;99.90;;;;;;5107452;28;20011;-72
2023/05/19 02:15:09;;;;;;;;;;;10.10;99.90;;;;;;5088487;28;19919;-74
2023/05/19 02:17:37;;;;;;;;;;;10.10;99.90;;;;;;5090684;28;20487;-74
2023/05/19 02:20:03;;;;;;;;;;;10.10;99.90;;;;;;5109160;28;20440;-74
2023/05/19 02:22:29;;;;;;;;;;;10.00;99.90;;;;;;5089563;28;19911;-74
2023/05/19 02:24:56;;;;;;;;;;;10.00;99.90;;;;;;5106068;28;19958;-75
2023/05/19 02:27:22;;;;;;;;;;;10.10;99.90;;;;;;5108452;28;19912;-73
2023/05/19 02:29:47;;;;;;;;;;;10.10;99.90;;;;;;5091294;28;19914;-73
2023/05/19 02:32:13;;;;;;;;;;;10.10;99.90;;;;;;5071604;28;20336;-74
2023/05/19 02:34:38;;;;;;;;;;;10.10;99.90;;;;;;5109933;28;19918;-74
2023/05/19 02:37:04;;;;;;;;;;;10.10;99.90;;;;;;5093263;28;19922;-72
2023/05/19 02:39:33;;;;;;;;;;;10.10;99.90;;;;;;5094028;28;19912;-73
2023/05/19 02:41:59;;;;;;;;;;;10.10;99.90;;;;;;5110344;28;19967;-73
2023/05/19 02:44:25;;;;;;;;;;;10.10;99.90;;;;;;5094235;28;19915;-74
2023/05/19 02:46:51;;;;;;;;;;;10.10;99.90;;;;;;5112433;28;19916;-72
2023/05/19 02:49:19;;;;;;;;;;;10.10;99.90;;;;;;5093815;28;19915;-72
2023/05/19 02:51:45;;;;;;;;;;;10.10;99.90;;;;;;5093815;28;19976;-72
2023/05/19 02:54:10;;;;;;;;;;;10.20;99.90;;;;;;5076268;27;19926;-74
2023/05/19 02:56:36;;;;;;;;;;;10.10;99.90;;;;;;5110721;28;19989;-73
2023/05/19 02:59:01;;;;;;;;;;;10.10;99.90;;;;;;5111772;28;19914;-72
2023/05/19 03:01:27;;;;;;;;;;;10.20;99.90;;;;;;5112659;28;20012;-73
2023/05/19 03:03:53;;;;;;;;;;;10.20;99.90;;;;;;5076966;28;20333;-72
2023/05/19 03:06:18;;;;;;;;;;;10.20;99.90;;;;;;5112581;27;20027;-72
2023/05/19 03:08:44;;;;;;;;;;;10.20;99.90;;;;;;5091328;28;19912;-72
2023/05/19 03:11:09;;;;;;;;;;;10.20;99.90;;;;;;5112145;28;19915;-72
2023/05/19 03:13:35;;;;;;;;;;;10.20;99.90;;;;;;5112737;27;19919;-73
2023/05/19 03:16:02;;;;;;;;;;;10.20;99.90;;;;;;5091000;28;20002;-74
2023/05/19 03:18:27;;;;;;;;;;;10.20;99.90;;;;;;5105228;28;19940;-72
2023/05/19 03:20:53;;;;;;;;;;;10.20;99.90;;;;;;5093295;28;19992;-72
2023/05/19 03:23:19;;;;;;;;;;;10.20;99.90;;;;;;5110729;27;19912;-72
2023/05/19 03:25:45;;;;;;;;;;;10.20;99.90;;;;;;5092263;28;19926;-72
2023/05/19 03:28:11;;;;;;;;;;;10.20;99.90;;;;;;5093571;28;20002;-72
2023/05/19 03:30:36;;;;;;;;;;;10.20;99.90;;;;;;5091733;28;19938;-72
2023/05/19 03:33:02;;;;;;;;;;;10.20;99.90;;;;;;5112203;27;20015;-73
2023/05/19 03:35:27;;;;;;;;;;;10.20;99.90;;;;;;5092603;28;19965;-72
2023/05/19 03:37:53;;;;;;;;;;;10.20;99.90;;;;;;5110835;28;20003;-73
2023/05/19 03:40:19;;;;;;;;;;;10.20;99.90;;;;;;5090233;28;19923;-72
2023/05/19 03:42:44;;;;;;;;;;;10.20;99.90;;;;;;5112233;28;19920;-73
2023/05/19 03:45:10;;;;;;;;;;;10.20;99.90;;;;;;5110174;27;19911;-72
2023/05/19 03:47:35;;;;;;;;;;;10.20;99.90;;;;;;5111770;28;19965;-72
2023/05/19 03:50:01;;;;;;;;;;;10.20;99.90;;;;;;5094226;28;19947;-72
2023/05/19 03:52:27;;;;;;;;;;;10.20;99.90;;;;;;5093410;28;19916;-74
2023/05/19 03:54:52;;;;;;;;;;;10.20;99.90;;;;;;5110492;27;19919;-72
2023/05/19 03:57:18;;;;;;;;;;;10.20;99.90;;;;;;5074254;28;20018;-72
2023/05/19 03:59:44;;;;;;;;;;;10.20;99.90;;;;;;5111296;28;19912;-72
2023/05/19 04:02:10;;;;;;;;;;;10.30;99.90;;;;;;5111232;28;20349;-73
2023/05/19 04:04:36;;;;;;;;;;;10.20;99.90;;;;;;5109679;27;19916;-73
2023/05/19 04:07:02;;;;;;;;;;;10.30;99.90;;;;;;5111519;27;19922;-75
2023/05/19 04:09:30;;;;;;;;;;;10.30;99.90;;;;;;5091148;28;19912;-72
2023/05/19 04:11:56;;;;;;;;;;;10.30;99.90;;;;;;5110302;27;20375;-74
2023/05/19 04:14:22;;;;;;;;;;;10.30;99.90;;;;;;5092382;28;19933;-72
2023/05/19 04:16:48;;;;;;;;;;;10.40;99.90;;;;;;5111492;27;19908;-72
2023/05/19 04:19:13;;;;;;;;;;;10.40;99.90;;;;;;5112907;27;19912;-74
2023/05/19 04:21:39;;;;;;;;;;;10.40;99.90;;;;;;5077761;28;19907;-73
2023/05/19 04:24:05;;;;;;;;;;;10.40;99.90;;;;;;5111012;27;19912;-72
2023/05/19 04:26:33;;;;;;;;;;;10.40;99.90;;;;;;5093211;28;20264;-72
2023/05/19 04:28:59;;;;;;;;;;;10.40;99.90;;;;;;5109116;28;20010;-72
2023/05/19 04:31:26;;;;;;;;;;;10.40;99.90;;;;;;5110639;27;20113;-72
2023/05/19 04:33:52;;;;;;;;;;;10.40;99.90;;;;;;5091330;28;20002;-72
2023/05/19 04:36:20;;;;;;;;;;;10.40;99.90;;;;;;5090820;28;19947;-74
2023/05/19 04:38:46;;;;;;;;;;;10.40;99.90;;;;;;5111140;27;19991;-74
2023/05/19 04:41:11;;;;;;;;;;;10.40;99.90;;;;;;5092998;28;20600;-74
2023/05/19 04:43:43;;;;;;;;;;;10.40;99.90;;;;;;5091836;28;19912;-74
2023/05/19 04:46:12;;;;;;;;;;;10.40;99.90;;;;;;5108988;27;20318;-74
2023/05/19 04:48:38;;;;;;;;;;;10.40;99.90;;;;;;5110808;28;19925;-73
2023/05/19 04:51:04;;;;;;;;;;;10.40;99.90;;;;;;5092527;28;19907;-74
2023/05/19 04:53:30;;;;;;;;;;;10.50;99.90;;;;;;5092781;28;19911;-74
2023/05/19 04:55:56;;;;;;;;;;;10.50;99.90;;;;;;5073482;28;19918;-72
2023/05/19 04:58:26;;;;;;;;;;;10.50;99.90;;;;;;5092549;28;19919;-74
2023/05/19 05:00:54;;;;;;;;;;;10.60;99.90;;;;;;5090394;27;19920;-74
2023/05/19 05:03:23;;;;;;;;;;;10.60;99.90;;;;;;5108840;28;19911;-72
2023/05/19 05:05:49;;;;;;;;;;;10.60;99.90;;;;;;5112841;28;20015;-74
2023/05/19 05:08:20;;;;;;;;;;;10.70;99.90;;;;;;5076938;28;19986;-72
2023/05/19 05:10:46;;;;;;;;;;;10.70;99.90;;;;;;5090126;28;19912;-74
2023/05/19 05:13:12;;;;;;;;;;;10.80;99.90;;;;;;5109473;28;20002;-72
2023/05/19 05:15:37;;;;;;;;;;;10.80;99.90;;;;;;5089749;28;19911;-74
2023/05/19 05:18:03;;;;;;;;;;;10.80;99.90;;;;;;5106371;28;20015;-72
2023/05/19 05:20:29;;;;;;;;;;;10.80;99.90;;;;;;5090745;28;19908;-73
2023/05/19 05:22:56;;;;;;;;;;;10.90;99.90;;;;;;5109436;28;19908;-74
2023/05/19 05:25:22;;;;;;;;;;;10.90;99.90;;;;;;5090801;28;19914;-73
2023/05/19 05:27:48;;;;;;;;;;;11.00;99.90;;;;;;5091886;28;19990;-73
2023/05/19 05:30:13;;;;;;;;;;;11.10;99.90;;;;;;5108821;28;19908;-72
2023/05/19 05:32:39;;;;;;;;;;;11.10;99.90;;;;;;5106982;28;19923;-73
2023/05/19 05:35:05;;;;;;;;;;;11.10;99.90;;;;;;5111025;28;19927;-72
2023/05/19 05:37:30;;;;;;;;;;;11.20;99.90;;;;;;5113829;28;19914;-72
2023/05/19 05:39:56;;;;;;;;;;;11.20;99.90;;;;;;5093845;28;19911;-74
2023/05/19 05:42:21;;;;;;;;;;;11.10;99.90;;;;;;5092821;28;19920;-73
2023/05/19 05:44:47;;;;;;;;;;;11.20;99.90;;;;;;5113043;28;19979;-74
2023/05/19 05:47:14;;;;;;;;;;;11.30;99.90;;;;;;5094778;28;19924;-73
2023/05/19 05:49:40;;;;;;;;;;;11.30;99.90;;;;;;5090067;28;19912;-73
2023/05/19 05:52:07;;;;;;;;;;;11.40;99.90;;;;;;5089158;28;20354;-74
2023/05/19 05:54:33;;;;;;;;;;;11.40;99.90;;;;;;5091212;28;19930;-71
2023/05/19 05:56:59;;;;;;;;;;;11.50;99.90;;;;;;5089544;28;20371;-73
2023/05/19 05:59:26;;;;;;;;;;;11.60;99.90;;;;;;5109309;28;19972;-74
2023/05/19 06:01:51;;;;;;;;;;;11.90;99.90;;;;;;5089739;28;19990;-72
2023/05/19 06:04:17;;;;;;;;;;;11.90;99.90;;;;;;5090481;28;19991;-72
2023/05/19 06:06:43;;;;;;;;;;;11.90;99.90;;;;;;5103884;28;19920;-74
2023/05/19 06:09:08;;;;;;;;;;;11.80;99.90;;;;;;5090441;28;19938;-73
2023/05/19 06:11:34;;;;;;;;;;;11.90;99.90;;;;;;5112027;28;19911;-73
2023/05/19 06:13:59;;;;;;;;;;;12.00;99.90;;;;;;5111714;27;19930;-74
2023/05/19 06:16:25;;;;;;;;;;;12.10;99.90;;;;;;5076690;28;20290;-74
2023/05/19 06:18:51;;;;;;;;;;;12.00;99.90;;;;;;5093736;28;19916;-72
2023/05/19 06:21:16;;;;;;;;;;;12.10;99.90;;;;;;5091639;28;20278;-74
2023/05/19 06:23:42;;;;;;;;;;;12.20;99.90;;;;;;5093463;28;19922;-74
2023/05/19 06:26:08;;;;;;;;;;;12.30;99.90;;;;;;5092992;28;19920;-73
2023/05/19 06:28:33;;;;;;;;;;;12.30;99.90;;;;;;5093404;28;20014;-72
2023/05/19 06:30:59;;;;;;;;;;;12.30;99.90;;;;;;5091095;28;19911;-74
2023/05/19 06:33:25;;;;;;;;;;;12.40;99.90;;;;;;5112449;28;19912;-72
2023/05/19 06:35:50;;;;;;;;;;;12.40;99.90;;;;;;5094930;28;19934;-72
2023/05/19 06:38:16;;;;;;;;;;;12.40;99.90;;;;;;5093110;28;19920;-72
2023/05/19 06:40:42;;;;;;;;;;;12.40;99.90;;;;;;5110923;27;20374;-73
2023/05/19 06:43:07;;;;;;;;;;;12.50;99.90;;;;;;5093705;28;20081;-74
2023/05/19 06:45:33;;;;;;;;;;;12.50;99.90;;;;;;5112149;28;19911;-72
2023/05/19 06:47:59;;;;;;;;;;;12.50;99.90;;;;;;5093936;28;20038;-72
2023/05/19 06:50:24;;;;;;;;;;;12.50;99.90;;;;;;5110669;27;20049;-72
2023/05/19 06:52:50;;;;;;;;;;;12.40;99.90;;;;;;5111155;27;20374;-73
2023/05/19 06:55:16;;;;;;;;;;;12.40;99.90;;;;;;5112110;28;19922;-74
2023/05/19 06:57:41;;;;;;;;;;;12.50;99.90;;;;;;5092659;28;19986;-72
2023/05/19 07:00:11;;;;;;;;;;;12.50;99.90;;;;;;5093347;28;19912;-72
2023/05/19 07:02:37;;;;;;;;;;;12.60;99.90;;;;;;5110400;28;19934;-72
2023/05/19 07:05:02;;;;;;;;;;;12.50;99.90;;;;;;5106776;28;20573;-72
2023/05/19 07:07:28;;;;;;;;;;;12.40;99.90;;;;;;5108181;28;19912;-72
2023/05/19 07:09:54;;;;;;;;;;;12.30;99.90;;;;;;5090032;28;19922;-74
2023/05/19 07:12:19;;;;;;;;;;;12.40;99.90;;;;;;5090525;27;19926;-74
2023/05/19 07:14:45;;;;;;;;;;;12.90;99.90;;;;;;5108829;27;20833;-72
2023/05/19 07:17:11;;;;;;;;;;;13.40;99.90;;;;;;5075596;28;20515;-72
2023/05/19 07:19:37;;;;;;;;;;;13.20;99.90;;;;;;5100540;28;19937;-73
2023/05/19 07:22:02;;;;;;;;;;;13.10;99.90;;;;;;5110369;27;20117;-74
2023/05/19 07:24:29;;;;;;;;;;;13.10;99.90;;;;;;5090258;28;19915;-74
2023/05/19 07:26:55;;;;;;;;;;;13.20;99.90;;;;;;5091516;27;19923;-71
2023/05/19 07:29:20;;;;;;;;;;;13.20;99.90;;;;;;5111538;28;20235;-72
2023/05/19 07:31:46;;;;;;;;;;;13.10;99.90;;;;;;5092837;28;19907;-74
2023/05/19 07:34:13;;;;;;;;;;;13.10;99.90;;;;;;5092912;28;19971;-72
2023/05/19 07:36:39;;;;;;;;;;;13.30;99.90;;;;;;5111446;27;19911;-72
2023/05/19 07:39:04;;;;;;;;;;;13.50;99.90;;;;;;5108553;27;19982;-72
2023/05/19 07:41:30;;;;;;;;;;;13.50;99.90;;;;;;5092658;28;19922;-72
2023/05/19 07:43:55;;;;;;;;;;;13.70;99.90;;;;;;5092550;28;19922;-74
2023/05/19 07:46:21;;;;;;;;;;;13.80;99.90;;;;;;5111820;28;19923;-73
2023/05/19 07:48:47;;;;;;;;;;;13.90;99.90;;;;;;5110810;28;19907;-73
2023/05/19 07:51:12;;;;;;;;;;;14.10;99.90;;;;;;5107900;27;20019;-74
2023/05/19 07:53:38;;;;;;;;;;;14.20;99.90;;;;;;5095332;28;20382;-76
2023/05/19 07:56:04;;;;;;;;;;;14.30;99.90;;;;;;5110961;27;20290;-71
2023/05/19 07:58:30;;;;;;;;;;;14.40;99.90;;;;;;5093516;28;19918;-74
2023/05/19 08:00:56;;;;;;;;;;;14.20;99.90;;;;;;5091072;28;19915;-73
2023/05/19 08:03:22;;;;;;;;;;;14.30;99.90;;;;;;5074915;28;19912;-72
2023/05/19 08:05:48;;;;;;;;;;;14.20;99.90;;;;;;5090383;28;20411;-73
2023/05/19 08:08:15;;;;;;;;;;;14.10;99.80;;;;;;5090960;28;19951;-72
2023/05/19 08:10:41;;;;;;;;;;;14.10;99.90;;;;;;5092305;28;19920;-73
2023/05/19 08:13:06;;;;;;;;;;;14.10;99.90;;;;;;5093025;28;19981;-73
2023/05/19 08:15:32;;;;;;;;;;;14.00;99.90;;;;;;5109446;28;19923;-74
2023/05/19 08:17:58;;;;;;;;;;;14.10;99.90;;;;;;5092861;28;19919;-73
2023/05/19 08:20:23;;;;;;;;;;;14.20;99.90;;;;;;5090154;28;20384;-73
2023/05/19 08:22:49;;;;;;;;;;;14.40;99.90;;;;;;5091956;28;19908;-71
2023/05/19 08:25:15;;;;;;;;;;;14.50;99.90;;;;;;5090821;28;19990;-71
2023/05/19 08:27:40;;;;;;;;;;;14.60;99.90;;;;;;5076694;28;19912;-73
2023/05/19 08:30:06;;;;;;;;;;;14.60;99.90;;;;;;5112049;28;19919;-73
2023/05/19 08:32:32;;;;;;;;;;;14.50;99.20;;;;;;5108581;27;19911;-73
2023/05/19 08:34:58;;;;;;;;;;;14.50;99.20;;;;;;5074754;28;19923;-73
2023/05/19 08:37:23;;;;;;;;;;;14.50;99.00;;;;;;5090501;28;19912;-71
2023/05/19 08:39:49;;;;;;;;;;;14.50;98.60;;;;;;5110622;28;19908;-71
2023/05/19 08:42:15;;;;;;;;;;;14.60;97.70;;;;;;5108648;28;19919;-71
2023/05/19 08:44:42;;;;;;;;;;;14.60;97.30;;;;;;5090819;28;19920;-72
2023/05/19 08:47:12;;;;;;;;;;;14.70;97.70;;;;;;5090609;28;20003;-73
2023/05/19 08:49:45;;;;;;;;;;;14.80;97.50;;;;;;5091584;28;19915;-73
2023/05/19 08:52:13;;;;;;;;;;;14.90;97.70;;;;;;5110601;28;19935;-73
2023/05/19 08:54:44;;;;;;;;;;;14.90;97.40;;;;;;5089716;28;19919;-71
2023/05/19 08:57:12;;;;;;;;;;;14.90;97.50;;;;;;5092817;27;19977;-72
2023/05/19 08:59:38;;;;;;;;;;;14.90;97.60;;;;;;5094451;28;19914;-71
2023/05/19 09:02:04;;;;;;;;;;;15.00;97.40;;;;;;5093889;28;19912;-71
2023/05/19 09:04:30;;;;;;;;;;;15.00;96.60;;;;;;5091734;27;19922;-71
2023/05/19 09:06:57;;;;;;;;;;;15.20;96.70;;;;;;5091518;28;19954;-72
2023/05/19 09:09:23;;;;;;;;;;;15.20;97.00;;;;;;5109670;28;19971;-72
2023/05/19 09:11:48;;;;;;;;;;;15.20;96.50;;;;;;5090861;28;20516;-71
2023/05/19 09:14:14;;;;;;;;;;;15.40;95.80;;;;;;5091993;28;19965;-71
2023/05/19 09:16:40;;;;;;;;;;;15.40;95.30;;;;;;5110170;27;20739;-73
2023/05/19 09:19:12;;;;;;;;;;;15.50;94.40;;;;;;5106001;28;19916;-73
2023/05/19 09:21:38;;;;;;;;;;;15.50;94.30;;;;;;5108551;28;20295;-71
2023/05/19 09:24:07;;;;;;;;;;;15.40;94.80;;;;;;5109904;28;19916;-71
2023/05/19 09:26:37;;;;;;;;;;;15.50;94.90;;;;;;5088955;28;19998;-72
2023/05/19 09:29:09;;;;;;;;;;;15.60;95.10;;;;;;5112940;28;20294;-71
2023/05/19 09:31:35;;;;;;;;;;;15.60;95.10;;;;;;5093190;28;19908;-73
2023/05/19 09:34:00;;;;;;;;;;;15.70;94.30;;;;;;5092883;28;19915;-73
2023/05/19 09:36:28;;;;;;;;;;;15.80;94.40;;;;;;5091412;28;19965;-73
2023/05/19 09:38:54;;;;;;;;;;;15.80;94.40;;;;;;5110164;28;19916;-71
2023/05/19 09:41:21;;;;;;;;;;;15.70;94.00;;;;;;5091015;28;19919;-72
2023/05/19 09:43:53;;;;;;;;;;;15.80;93.60;;;;;;5110326;28;20527;-73
2023/05/19 09:46:25;;;;;;;;;;;15.80;93.50;;;;;;5113140;28;19959;-72
2023/05/19 09:48:55;;;;;;;;;;;15.90;93.70;;;;;;5095200;28;20007;-73
2023/05/19 09:51:21;;;;;;;;;;;15.90;93.40;;;;;;5092042;28;19914;-72
2023/05/19 09:53:50;;;;;;;;;;;16.00;91.50;;;;;;5091696;28;20002;-74
2023/05/19 09:56:16;;;;;;;;;;;16.10;92.40;;;;;;5106963;28;19916;-73
2023/05/19 09:58:42;;;;;;;;;;;16.10;91.30;;;;;;5090515;28;19957;-72
2023/05/19 10:01:07;;;;;;;;;;;16.10;91.20;;;;;;5109043;28;19965;-74
2023/05/19 10:03:33;;;;;;;;;;;16.10;91.10;;;;;;5074811;28;19946;-72
2023/05/19 10:06:06;;;;;;;;;;;16.10;90.70;;;;;;5108481;28;19967;-74
2023/05/19 10:08:32;;;;;;;;;;;16.20;90.80;;;;;;5090095;28;20345;-71
2023/05/19 10:10:58;;;;;;;;;;;16.20;90.70;;;;;;5108317;28;20306;-74
2023/05/19 10:13:24;;;;;;;;;;;16.20;91.10;;;;;;5088114;28;19922;-72
2023/05/19 10:15:51;;;;;;;;;;;16.30;90.70;;;;;;5108513;28;19969;-72
2023/05/19 10:18:17;;;;;;;;;;;16.20;90.00;;;;;;5089364;28;20337;-74
2023/05/19 10:20:43;;;;;;;;;;;16.20;90.10;;;;;;5090984;28;20359;-71
2023/05/19 10:23:08;;;;;;;;;;;16.20;88.10;;;;;;5090612;28;20003;-71
2023/05/19 10:25:35;;;;;;;;;;;16.30;89.40;;;;;;5090255;28;19955;-73
2023/05/19 10:28:03;;;;;;;;;;;16.30;89.20;;;;;;5108136;28;19923;-74
2023/05/19 10:30:33;;;;;;;;;;;16.40;88.90;;;;;;5087628;28;19947;-73
2023/05/19 10:33:00;;;;;;;;;;;16.50;87.40;;;;;;5090656;28;20023;-73
2023/05/19 10:35:49;;;;;;;;;;;16.40;87.70;;;;;;5090348;28;19938;-74
2023/05/19 10:38:27;;;;;;;;;;;16.60;89.50;;;;;;5107889;28;19912;-71
2023/05/19 10:41:12;;;;;;;;;;;16.70;88.00;;;;;;5090667;28;20042;-73
2023/05/19 10:43:53;;;;;;;;;;;16.60;84.70;;;;;;5100311;28;19916;-72
2023/05/19 10:46:22;;;;;;;;;;;16.60;83.80;;;;;;5087651;28;19970;-73
2023/05/19 10:48:47;;;;;;;;;;;16.70;82.90;;;;;;5092873;28;20335;-73
2023/05/19 10:51:13;;;;;;;;;;;16.60;82.30;;;;;;5109126;28;19916;-71
2023/05/19 10:53:40;;;;;;;;;;;16.60;83.30;;;;;;5090266;28;19908;-72
2023/05/19 10:56:08;;;;;;;;;;;16.70;82.30;;;;;;5090586;28;20089;-73
2023/05/19 10:58:55;;;;;;;;;;;16.80;81.40;;;;;;5076703;28;19965;-73
2023/05/19 11:01:23;;;;;;;;;;;16.80;81.00;;;;;;5112878;28;19938;-72
2023/05/19 11:03:50;;;;;;;;;;;17.00;83.20;;;;;;5092697;28;19916;-73
2023/05/19 11:06:17;;;;;;;;;;;17.20;79.80;;;;;;5093311;28;19931;-73
2023/05/19 11:08:42;;;;;;;;;;;17.40;80.60;;;;;;5077374;28;19916;-72
2023/05/19 11:11:12;;;;;;;;;;;17.60;81.60;;;;;;5109600;27;20267;-73
2023/05/19 11:13:39;;;;;;;;;;;18.00;79.50;;;;;;5110103;27;19918;-73
2023/05/19 11:16:08;;;;;;;;;;;18.70;78.60;;;;;;5086082;28;19917;-74
2023/05/19 11:18:34;;;;;;;;;;;19.40;75.50;;;;;;5108136;28;19963;-74
2023/05/19 11:21:03;;;;;;;;;;;20.40;73.20;;;;;;5112764;28;20448;-73
2023/05/19 11:23:32;;;;;;;;;;;21.80;68.60;;;;;;5113290;28;19962;-73
2023/05/19 11:26:00;;;;;;;;;;;23.30;64.00;;;;;;5093230;28;19922;-72
2023/05/19 11:28:28;;;;;;;;;;;24.70;58.00;;;;;;5091019;28;20390;-72
2023/05/19 11:30:56;;;;;;;;;;;25.90;54.30;;;;;;5092581;28;20343;-73
2023/05/19 11:33:26;;;;;;;;;;;27.00;49.10;;;;;;5110352;27;19915;-74
2023/05/19 11:35:52;;;;;;;;;;;28.10;46.20;;;;;;5093178;28;19918;-74
2023/05/19 11:38:18;;;;;;;;;;;27.60;44.70;;;;;;5093585;28;19912;-73
2023/05/19 11:40:44;;;;;;;;;;;26.90;43.50;;;;;;5101795;28;20290;-74
2023/05/19 11:43:09;;;;;;;;;;;29.40;41.60;;;;;;5093617;28;19919;-74
2023/05/19 11:45:35;;;;;;;;;;;30.10;40.20;;;;;;5091932;28;19923;-74
2023/05/19 11:48:01;;;;;;;;;;;29.90;40.20;;;;;;5108619;28;19962;-75
2023/05/19 11:50:27;;;;;;;;;;;29.40;39.60;;;;;;5090981;28;20306;-75
2023/05/19 11:52:53;;;;;;;;;;;28.50;40.60;;;;;;5111082;28;19916;-73
2023/05/19 11:55:22;;;;;;;;;;;27.40;41.30;;;;;;5093515;28;19915;-74
2023/05/19 11:57:57;;;;;;;;;;;27.00;41.80;;;;;;5092040;28;19911;-74
2023/05/19 12:00:24;;;;;;;;;;;26.20;43.70;;;;;;5075605;28;19915;-74
2023/05/19 12:02:50;;;;;;;;;;;25.70;43.80;;;;;;5075169;28;20429;-72
2023/05/19 12:05:22;;;;;;;;;;;24.60;45.00;;;;;;5092116;28;19912;-72
2023/05/19 12:07:50;;;;;;;;;;;23.10;46.50;;;;;;5091842;28;20437;-72
2023/05/19 12:10:35;;;;;;;;;;;22.40;49.80;;;;;;5111636;28;19908;-73
2023/05/19 12:13:01;;;;;;;;;;;21.90;50.90;;;;;;5112528;27;20328;-74
2023/05/19 12:15:27;;;;;;;;;;;21.50;53.10;;;;;;5093893;27;20046;-72
2023/05/19 12:18:00;;;;;;;;;;;21.60;50.20;;;;;;5094371;28;19915;-72
2023/05/19 12:20:26;;;;;;;;;;;21.50;48.30;;;;;;5113286;28;19955;-73
2023/05/19 12:22:54;;;;;;;;;;;21.40;51.00;;;;;;5093271;27;19919;-73
2023/05/19 12:25:19;;;;;;;;;;;21.10;52.70;;;;;;5095002;28;19919;-73
2023/05/19 12:27:47;;;;;;;;;;;21.00;53.00;;;;;;5111545;27;19912;-71
2023/05/19 12:30:13;;;;;;;;;;;20.70;50.50;;;;;;5109918;28;20137;-72
2023/05/19 12:32:38;;;;;;;;;;;21.30;51.10;;;;;;5092535;28;19908;-72
2023/05/19 12:35:04;;;;;;;;;;;22.90;47.90;;;;;;5092988;28;19930;-72
2023/05/19 12:37:33;;;;;;;;;;;23.60;46.90;;;;;;5105633;27;19974;-73
2023/05/19 12:39:59;;;;;;;;;;;25.10;44.70;;;;;;5092256;28;19912;-72
2023/05/19 12:42:29;;;;;;;;;;;24.80;44.10;;;;;;5092853;28;19920;-72
2023/05/19 12:44:56;;;;;;;;;;;25.10;42.90;;;;;;5111211;28;19914;-72
2023/05/19 12:47:21;;;;;;;;;;;25.00;43.80;;;;;;5092297;28;19916;-72
2023/05/19 12:49:55;;;;;;;;;;;23.60;45.50;;;;;;5094297;28;19915;-73
2023/05/19 12:52:22;;;;;;;;;;;23.40;47.30;;;;;;5109519;28;20292;-72
2023/05/19 12:54:48;;;;;;;;;;;23.00;47.00;;;;;;5090427;28;19974;-72
2023/05/19 12:57:18;;;;;;;;;;;23.80;46.10;;;;;;5074283;28;19911;-72
2023/05/19 12:59:46;;;;;;;;;;;24.70;45.40;;;;;;5092261;28;19908;-73
2023/05/19 13:02:11;;;;;;;;;;;25.90;43.70;;;;;;5091089;28;19908;-73
2023/05/19 13:04:37;;;;;;;;;;;26.40;42.60;;;;;;5075680;28;19957;-73
2023/05/19 13:07:03;;;;;;;;;;;26.80;43.10;;;;;;5109936;28;19995;-73
2023/05/19 13:09:33;;;;;;;;;;;26.80;40.90;;;;;;5091467;28;20500;-72
2023/05/19 13:11:59;;;;;;;;;;;26.70;42.00;;;;;;5108826;28;19915;-72
2023/05/19 13:14:25;;;;;;;;;;;27.00;41.30;;;;;;5090604;28;19912;-73
2023/05/19 13:16:50;;;;;;;;;;;26.30;43.30;;;;;;5109795;28;19916;-73
2023/05/19 13:19:17;;;;;;;;;;;27.00;41.60;;;;;;5109837;28;20263;-73
2023/05/19 13:21:42;;;;;;;;;;;27.50;40.20;;;;;;5109790;28;19956;-73
2023/05/19 13:24:08;;;;;;;;;;;28.90;39.50;;;;;;5110063;28;20391;-75
2023/05/19 13:26:34;;;;;;;;;;;30.30;37.30;;;;;;5090072;28;20392;-74
2023/05/19 13:29:01;;;;;;;;;;;30.00;37.90;;;;;;5088361;28;19922;-74
2023/05/19 13:31:26;;;;;;;;;;;29.60;37.80;;;;;;5091772;28;19908;-72
2023/05/19 13:33:52;;;;;;;;;;;29.50;38.90;;;;;;5090704;28;19916;-74
2023/05/19 13:36:17;;;;;;;;;;;30.60;38.10;;;;;;5069799;28;20444;-74
2023/05/19 13:38:43;;;;;;;;;;;30.00;36.70;;;;;;5110259;28;19911;-73
2023/05/19 13:41:09;;;;;;;;;;;29.40;37.90;;;;;;5109170;28;19968;-74
2023/05/19 13:43:34;;;;;;;;;;;29.10;38.20;;;;;;5089332;28;20335;-72
2023/05/19 13:46:00;;;;;;;;;;;28.50;38.10;;;;;;5109371;28;20028;-73
2023/05/19 13:48:25;;;;;;;;;;;27.00;39.20;;;;;;5109279;28;19920;-73
2023/05/19 13:50:53;;;;;;;;;;;25.50;40.70;;;;;;5111099;28;19919;-72
2023/05/19 13:53:18;;;;;;;;;;;24.70;43.40;;;;;;5090608;28;19922;-73
2023/05/19 13:55:45;;;;;;;;;;;25.30;42.30;;;;;;5088706;28;19912;-73
2023/05/19 13:58:13;;;;;;;;;;;25.10;42.30;;;;;;5088798;28;19919;-72
2023/05/19 14:00:38;;;;;;;;;;;25.80;42.20;;;;;;5109183;28;19908;-73
2023/05/19 14:03:04;;;;;;;;;;;27.90;41.00;;;;;;5105657;28;19918;-72
2023/05/19 14:05:30;;;;;;;;;;;27.80;39.10;;;;;;5089165;28;19963;-72
2023/05/19 14:07:55;;;;;;;;;;;27.10;39.90;;;;;;5107940;28;20371;-74
2023/05/19 14:10:21;;;;;;;;;;;26.60;40.50;;;;;;5091006;28;19994;-72
2023/05/19 14:12:47;;;;;;;;;;;27.30;40.80;;;;;;5090135;28;19955;-73
2023/05/19 14:15:12;;;;;;;;;;;26.80;40.60;;;;;;5088003;28;19923;-75